Flugplatz Lauf-Lillinghof

Für EDQI sind keine METAR/TAF Berichte vorhanden.
Es werden die Flugwettermeldungen vom Flugplatz Nuremberg in 19 km Entfernung angezeigt.

Bericht für EDDN

vom 25.01. um 22:50 UTC

variable Windrichtung mit 2 kt

Sichtweite 100 m

Code: FZFG

keine Wolken

Temperatur -1.0°C

Taupunkt -1.0°C

Luftfeuchtigkeit 100%

Luftdruck 1021 hPa

EDDN 252250Z VRB02KT 0100 R28/P2000N FZFG NSC M01/M01 Q1021

Prognose für EDDN

vom 25.01. um 00:00 UTC

Am 25.01. zwischen 00:00 UTC und 00:00 UTC

variable Windrichtung mit 3 kt

Sichtweite 1200 m

Nebelschwaden

bedeckt in 300 ft


Am 25.01. zwischen 00:00 UTC und 00:00 UTC zeitweise

Sichtweite 200 m

Code: FZFG

bedeckt in 100 ft


Zwischen 00:00 und 00:00 UTC übergehend zu

variable Windrichtung mit 3 kt

Sichtweite 8000 m

Nebelschwaden

aufgelockert bewölkt in 500 ft

TAF AMD EDDN 251829Z 2518/2618 VRB03KT 1200 BCFG OVC003 TEMPO 2518/2608 0200 FZFG OVC001 BECMG 2610/2612 8000 SCT005
Impressum